Terminal Aerodrome Forecast
Issued by NWS

Home | Current Version | Previous Version | Text Only | Print | Product List | Glossary On
Versions: 1 2 3 4 5 6 7 8 9 10 11 12
492
FTUS45 KRIW 262322
TAFRKS
TAF
KRKS 262322Z 2700/2724 26011G21KT P6SM VCSH SCT100 BKN150
     FM270300 19009KT P6SM SCT100 BKN150
     FM271300 24014G20KT P6SM BKN150
     FM271800 28015G25KT P6SM BKN100
     FM272000 27020G35KT P6SM SCT100=

USA.gov is the U.S. government's official web portal to all federal, state and local government web resources and services.